Time;durP1;ratioP1;P1;durP2;ratioP2;P2;SDS_P1;SDS_P2;PMS_P1;PMS_P2;Temp;Humidity;BMP_temperature;BMP_pressure;BME280_temperature;BME280_humidity;BME280_pressure;Samples;Min_cycle;Max_cycle;Signal;HPM_P1;HPM_P2
2021/10/20 00:02:24;;;;;;;40.17;23.30;;;;;;;9.21;65.34;102320.38;1797204;78;25699;-65
2021/10/20 00:04:52;;;;;;;43.60;22.10;;;;;;;9.06;65.43;102318.09;1768393;80;25853;-64
2021/10/20 00:07:19;;;;;;;45.43;23.27;;;;;;;8.98;65.87;102319.01;1768337;80;25804;-64
2021/10/20 00:09:46;;;;;;;44.60;22.90;;;;;;;8.92;66.15;102313.51;1768495;81;25724;-64
2021/10/20 00:12:12;;;;;;;45.55;21.97;;;;;;;8.90;66.38;102314.56;1768494;80;27435;-65
2021/10/20 00:14:39;;;;;;;38.58;23.62;;;;;;;8.88;66.62;102307.91;1771641;78;26442;-64
2021/10/20 00:17:06;;;;;;;45.38;23.35;;;;;;;8.88;66.77;102312.43;1818477;78;25749;-63
2021/10/20 00:19:34;;;;;;;39.40;20.52;;;;;;;8.87;66.80;102308.89;1818452;78;26180;-64
2021/10/20 00:22:01;;;;;;;40.95;23.57;;;;;;;8.86;67.23;102308.50;1818400;78;25732;-64
2021/10/20 00:24:28;;;;;;;43.28;22.85;;;;;;;8.80;66.93;102310.66;1818207;78;27476;-64
2021/10/20 00:26:55;;;;;;;47.05;24.65;;;;;;;8.74;66.96;102305.16;1817849;78;26199;-64
2021/10/20 00:29:21;;;;;;;43.65;23.18;;;;;;;8.75;67.05;102306.41;1817531;78;25823;-64
2021/10/20 00:31:48;;;;;;;44.50;24.87;;;;;;;8.71;67.02;102302.64;1750068;81;25790;-64
2021/10/20 00:34:15;;;;;;;46.23;24.40;;;;;;;8.68;67.17;102303.68;1766830;79;25759;-65
2021/10/20 00:36:43;;;;;;;41.23;22.42;;;;;;;8.67;67.34;102300.61;1768964;80;27457;-64
2021/10/20 00:39:10;;;;;;;35.95;22.77;;;;;;;8.70;67.39;102296.88;1806826;78;25729;-64
2021/10/20 00:41:37;;;;;;;37.88;23.47;;;;;;;8.69;67.24;102293.34;1817351;78;25739;-64
2021/10/20 00:44:05;;;;;;;39.70;23.12;;;;;;;8.69;67.19;102286.64;1817739;78;26158;-64
2021/10/20 00:46:32;;;;;;;39.95;24.50;;;;;;;8.68;67.00;102284.91;1786088;78;26415;-63
2021/10/20 00:48:59;;;;;;;46.05;25.27;;;;;;;8.64;66.91;102282.02;1816968;78;27449;-63
2021/10/20 00:51:27;;;;;;;42.83;22.82;;;;;;;8.61;66.88;102276.33;1817469;78;25734;-63
2021/10/20 00:53:57;;;;;;;43.02;24.07;;;;;;;8.55;66.69;102272.66;1817604;78;26469;-63
2021/10/20 00:56:26;;;;;;;44.48;23.87;;;;;;;8.48;66.69;102267.25;1817857;78;25773;-63
2021/10/20 00:58:53;;;;;;;49.45;24.10;;;;;;;8.40;66.77;102268.98;1817639;78;25808;-63
2021/10/20 01:01:21;;;;;;;47.13;24.27;;;;;;;8.34;66.65;102258.60;1820218;78;27428;-64
2021/10/20 01:03:48;;;;;;;47.55;24.15;;;;;;;8.25;66.47;102262.64;1795714;78;26395;-66
2021/10/20 01:06:16;;;;;;;41.40;24.27;;;;;;;8.18;66.42;102262.59;1769381;81;25726;-64
2021/10/20 01:08:44;;;;;;;43.00;24.70;;;;;;;8.09;66.50;102266.66;1769394;81;25815;-65
2021/10/20 01:11:12;;;;;;;44.45;24.45;;;;;;;8.00;66.47;102269.83;1769572;81;25767;-65
2021/10/20 01:13:39;;;;;;;39.67;22.85;;;;;;;7.93;66.48;102265.76;1741328;81;27578;-63
2021/10/20 01:16:06;;;;;;;43.85;24.15;;;;;;;7.83;66.39;102258.20;1769480;81;26341;-64
2021/10/20 01:18:33;;;;;;;38.67;22.90;;;;;;;7.75;66.45;102252.39;1769544;81;25704;-64
2021/10/20 01:21:03;;;;;;;49.48;25.90;;;;;;;7.66;66.47;102252.88;1769443;81;25830;-63
2021/10/20 01:23:30;;;;;;;42.88;24.75;;;;;;;7.60;66.71;102245.14;1770403;80;25766;-64
2021/10/20 01:25:57;;;;;;;45.80;25.23;;;;;;;7.51;66.92;102247.36;1779942;80;28172;-64
2021/10/20 01:28:24;;;;;;;41.88;23.77;;;;;;;7.44;67.00;102245.09;1779845;80;25782;-64
2021/10/20 01:30:50;;;;;;;46.65;22.50;;;;;;;7.38;67.11;102243.60;1782867;80;25770;-64
2021/10/20 01:33:17;;;;;;;40.88;22.90;;;;;;;7.35;67.82;102236.56;1780375;80;26536;-64
2021/10/20 01:35:44;;;;;;;40.95;22.67;;;;;;;7.30;67.37;102241.80;1779823;79;25862;-64
2021/10/20 01:38:11;;;;;;;41.70;21.57;;;;;;;7.27;67.41;102242.80;1773687;79;27491;-64
2021/10/20 01:40:38;;;;;;;39.20;20.72;;;;;;;7.24;67.96;102240.75;1779500;80;26497;-64
2021/10/20 01:43:06;;;;;;;40.98;21.42;;;;;;;7.23;67.84;102237.67;1779827;80;25731;-64
2021/10/20 01:45:34;;;;;;;45.08;23.12;;;;;;;7.21;68.00;102233.75;1779953;80;25703;-64
2021/10/20 01:48:01;;;;;;;43.28;21.42;;;;;;;7.24;68.30;102224.69;1779905;79;25983;-64
2021/10/20 01:50:28;;;;;;;41.55;20.57;;;;;;;7.26;68.55;102224.99;1750730;79;28175;-64
2021/10/20 01:52:54;;;;;;;43.98;21.05;;;;;;;7.30;68.66;102223.05;1779460;80;25773;-64
2021/10/20 01:55:21;;;;;;;43.45;22.80;;;;;;;7.33;68.30;102223.77;1780097;80;26440;-64
2021/10/20 01:57:48;;;;;;;40.00;21.30;;;;;;;7.34;68.41;102223.27;1779798;80;25781;-64
2021/10/20 02:00:16;;;;;;;32.98;19.55;;;;;;;7.38;68.29;102221.30;1781183;79;26539;-64
2021/10/20 02:02:43;;;;;;;41.50;20.37;;;;;;;7.40;67.90;102222.95;1789989;79;28166;-65
2021/10/20 02:05:13;;;;;;;34.98;20.52;;;;;;;7.38;67.66;102223.52;1780384;80;25834;-65
2021/10/20 02:07:40;;;;;;;37.83;21.50;;;;;;;7.35;67.78;102220.99;1780231;80;26229;-64
2021/10/20 02:10:12;;;;;;;40.17;20.00;;;;;;;7.34;67.72;102220.59;1781203;80;25843;-65
2021/10/20 02:12:40;;;;;;;39.75;19.32;;;;;;;7.31;67.55;102222.08;1781176;80;25771;-64
2021/10/20 02:15:09;;;;;;;38.80;20.17;;;;;;;7.22;67.29;102225.27;1780957;80;27458;-64
2021/10/20 02:17:36;;;;;;;36.45;19.85;;;;;;;7.11;67.35;102230.69;1780929;80;25734;-66
2021/10/20 02:20:11;;;;;;;37.25;20.35;;;;;;;7.03;67.26;102225.70;1780797;80;25761;-65
2021/10/20 02:22:40;;;;;;;42.43;20.57;;;;;;;6.97;67.37;102237.18;1781227;80;26442;-64
2021/10/20 02:25:08;;;;;;;43.00;22.25;;;;;;;6.92;67.50;102232.06;1780831;80;25818;-63
2021/10/20 02:27:35;;;;;;;39.83;21.17;;;;;;;6.87;67.57;102233.63;1781277;79;28075;-63
2021/10/20 02:30:06;;;;;;;38.95;21.15;;;;;;;6.85;67.48;102233.31;1783182;80;25799;-63
2021/10/20 02:32:34;;;;;;;36.53;20.92;;;;;;;6.78;67.45;102234.08;1789110;80;25730;-64
2021/10/20 02:35:04;;;;;;;45.17;24.70;;;;;;;6.70;67.40;102230.91;1789371;80;26460;-65
2021/10/20 02:37:31;;;;;;;40.73;22.65;;;;;;;6.64;67.46;102233.90;1784250;80;26294;-65
2021/10/20 02:39:58;;;;;;;45.43;21.68;;;;;;;6.58;67.53;102233.27;1780851;79;27486;-65
2021/10/20 02:42:24;;;;;;;38.45;20.82;;;;;;;6.54;67.61;102235.68;1780762;80;25746;-64
2021/10/20 02:44:51;;;;;;;37.58;19.80;;;;;;;6.51;67.63;102230.95;1780752;80;25778;-64
2021/10/20 02:47:19;;;;;;;35.03;19.95;;;;;;;6.47;67.77;102232.03;1780248;80;25803;-64
2021/10/20 02:49:49;;;;;;;36.45;20.68;;;;;;;6.41;67.90;102236.74;1781167;79;25833;-64
2021/10/20 02:52:18;;;;;;;38.73;20.72;;;;;;;6.37;68.03;102232.47;1781033;80;29606;-65
2021/10/20 02:54:45;;;;;;;35.92;19.10;;;;;;;6.35;68.10;102229.48;1780805;80;25671;-65
2021/10/20 02:57:12;;;;;;;36.73;20.40;;;;;;;6.33;68.26;102226.88;1780964;80;25742;-65
2021/10/20 02:59:39;;;;;;;31.80;18.80;;;;;;;6.32;68.44;102233.16;1783902;79;25823;-65
2021/10/20 03:02:07;;;;;;;36.25;17.37;;;;;;;6.30;68.64;102229.69;1757891;80;25715;-65
2021/10/20 03:04:34;;;;;;;29.87;16.57;;;;;;;6.30;68.93;102232.84;1757871;80;27454;-64
2021/10/20 03:07:01;;;;;;;42.23;18.00;;;;;;;6.30;68.79;102236.86;1757898;80;25691;-64
2021/10/20 03:09:28;;;;;;;33.78;18.27;;;;;;;6.30;69.04;102233.70;1758098;80;25612;-64
2021/10/20 03:11:55;;;;;;;29.30;17.32;;;;;;;6.34;69.28;102237.09;1757958;81;25804;-65
2021/10/20 03:14:25;;;;;;;31.77;17.40;;;;;;;6.37;69.39;102232.95;1758081;81;25791;-67
2021/10/20 03:16:52;;;;;;;30.08;16.48;;;;;;;6.38;69.33;102231.53;1757984;81;29643;-64
2021/10/20 03:19:19;;;;;;;34.10;17.57;;;;;;;6.42;69.28;102229.13;1758050;81;25896;-64
2021/10/20 03:21:46;;;;;;;36.63;17.05;;;;;;;6.46;69.40;102223.16;1758136;80;26412;-64
2021/10/20 03:24:12;;;;;;;35.73;17.45;;;;;;;6.51;69.36;102216.25;1763928;80;25731;-63
2021/10/20 03:26:40;;;;;;;28.07;16.87;;;;;;;6.55;69.49;102221.38;1756652;81;25716;-64
2021/10/20 03:29:08;;;;;;;33.33;18.55;;;;;;;6.59;69.33;102219.41;1756662;81;27540;-63
2021/10/20 03:31:37;;;;;;;30.32;17.40;;;;;;;6.63;69.32;102218.80;1777225;80;25816;-63
2021/10/20 03:34:04;;;;;;;32.65;17.00;;;;;;;6.66;69.33;102218.17;1756743;81;25784;-64
2021/10/20 03:36:31;;;;;;;32.38;16.35;;;;;;;6.68;69.25;102210.95;1749980;80;25787;-63
2021/10/20 03:38:58;;;;;;;37.03;18.30;;;;;;;6.68;69.01;102218.97;1744398;81;25838;-63
2021/10/20 03:41:27;;;;;;;31.60;17.05;;;;;;;6.66;68.76;102218.66;1753791;81;27428;-63
2021/10/20 03:43:54;;;;;;;32.25;18.45;;;;;;;6.63;68.44;102219.67;1753678;81;25855;-64
2021/10/20 03:46:21;;;;;;;35.08;17.20;;;;;;;6.54;68.25;102219.64;1760226;80;25742;-64
2021/10/20 03:48:48;;;;;;;31.27;17.80;;;;;;;6.46;68.19;102223.16;1788152;80;25869;-64
2021/10/20 03:51:15;;;;;;;39.48;18.82;;;;;;;6.37;68.08;102223.11;1788005;78;25738;-64
2021/10/20 03:53:44;;;;;;;32.90;18.98;;;;;;;6.29;68.00;102217.75;1788235;80;29682;-63
2021/10/20 03:56:11;;;;;;;31.97;18.05;;;;;;;6.22;67.94;102208.70;1787713;79;25877;-64
2021/10/20 03:58:38;;;;;;;33.63;17.75;;;;;;;6.16;67.85;102210.78;1788330;80;25784;-64
2021/10/20 04:01:06;;;;;;;31.42;17.32;;;;;;;6.10;68.00;102203.91;1787949;80;25824;-64
2021/10/20 04:03:33;;;;;;;32.35;18.15;;;;;;;6.03;68.03;102209.16;1772698;80;27240;-63
2021/10/20 04:06:00;;;;;;;28.20;17.37;;;;;;;5.96;68.04;102208.05;1765231;81;27870;-63
2021/10/20 04:08:27;;;;;;;38.50;18.00;;;;;;;5.89;67.99;102203.93;1765052;81;25735;-63
2021/10/20 04:10:54;;;;;;;37.15;18.52;;;;;;;5.82;68.09;102203.82;1765160;81;25763;-64
2021/10/20 04:13:21;;;;;;;33.05;18.65;;;;;;;5.78;68.17;102209.77;1765026;81;25815;-64
2021/10/20 04:15:48;;;;;;;35.00;16.80;;;;;;;5.71;68.28;102205.66;1756226;80;25957;-65
2021/10/20 04:18:15;;;;;;;37.45;18.85;;;;;;;5.66;68.22;102205.45;1748164;81;27459;-64
2021/10/20 04:20:43;;;;;;;34.05;18.27;;;;;;;5.61;68.45;102215.86;1748347;81;26376;-64
2021/10/20 04:23:10;;;;;;;34.38;18.60;;;;;;;5.57;68.54;102211.61;1755285;80;25715;-64
2021/10/20 04:25:37;;;;;;;39.00;17.40;;;;;;;5.55;68.68;102216.14;1787055;80;25795;-64
2021/10/20 04:28:05;;;;;;;38.75;17.55;;;;;;;5.54;68.72;102212.22;1761579;80;25706;-65
2021/10/20 04:30:32;;;;;;;35.58;18.17;;;;;;;5.53;68.86;102219.34;1786192;78;27471;-65
2021/10/20 04:33:01;;;;;;;39.78;18.25;;;;;;;5.51;69.02;102209.67;1780964;80;25886;-65
2021/10/20 04:35:27;;;;;;;37.40;19.73;;;;;;;5.50;69.42;102212.82;1780103;80;25722;-65
2021/10/20 04:37:54;;;;;;;41.68;18.77;;;;;;;5.52;69.55;102206.07;1771252;80;25814;-64
2021/10/20 04:40:24;;;;;;;40.40;20.62;;;;;;;5.55;69.75;102208.61;1778741;80;26179;-64
2021/10/20 04:42:51;;;;;;;58.68;25.02;;;;;;;5.59;69.88;102199.52;1774519;80;28146;-64
2021/10/20 04:45:18;;;;;;;60.28;25.12;;;;;;;5.66;69.95;102200.12;1777331;79;25932;-63
2021/10/20 04:47:45;;;;;;;75.60;31.00;;;;;;;5.71;69.98;102198.09;1781581;80;25724;-64
2021/10/20 04:50:11;;;;;;;75.30;34.48;;;;;;;5.77;70.04;102205.84;1780532;80;25748;-63
2021/10/20 04:52:38;;;;;;;75.65;31.15;;;;;;;5.83;69.99;102207.38;1779040;80;25798;-63
2021/10/20 04:55:07;;;;;;;68.57;31.25;;;;;;;5.87;70.03;102207.13;1776089;80;27317;-62
2021/10/20 04:57:46;;;;;;;76.60;35.48;;;;;;;5.92;69.98;102205.59;1778835;80;25811;-65
2021/10/20 05:00:18;;;;;;;87.85;39.18;;;;;;;5.96;69.80;102199.18;1779715;80;25817;-63
2021/10/20 05:02:48;;;;;;;87.30;36.88;;;;;;;5.98;69.61;102199.98;1777739;80;25944;-64
2021/10/20 05:05:17;;;;;;;99.75;41.65;;;;;;;6.02;69.58;102200.25;1769793;81;25850;-66
2021/10/20 05:07:48;;;;;;;90.90;39.83;;;;;;;6.05;70.01;102196.59;1768714;81;26058;-65
2021/10/20 05:10:20;;;;;;;85.17;37.20;;;;;;;6.04;69.90;102185.51;1768829;81;25779;-66
2021/10/20 05:12:56;;;;;;;71.20;30.52;;;;;;;6.06;69.66;102196.52;1770499;80;25794;-65
2021/10/20 05:15:46;;;;;;;55.50;29.27;;;;;;;6.08;69.76;102200.44;1779201;79;25814;-67
2021/10/20 05:18:16;;;;;;;57.43;26.50;;;;;;;6.08;69.66;102201.33;1776050;79;26319;-65
2021/10/20 05:20:44;;;;;;;43.87;21.17;;;;;;;6.04;69.22;102197.53;1784422;80;27514;-64
2021/10/20 05:23:10;;;;;;;45.23;22.05;;;;;;;5.99;69.10;102201.75;1782025;80;26725;-63
2021/10/20 05:25:40;;;;;;;43.10;23.38;;;;;;;5.91;68.95;102205.22;1783442;80;25660;-66
2021/10/20 05:28:07;;;;;;;43.92;21.07;;;;;;;5.83;69.00;102208.23;1782737;80;26530;-65
2021/10/20 05:30:36;;;;;;;40.08;20.00;;;;;;;5.78;69.18;102203.09;1783012;79;25808;-65
2021/10/20 05:33:03;;;;;;;34.70;19.55;;;;;;;5.76;69.40;102200.10;1776560;79;27480;-64
2021/10/20 05:35:31;;;;;;;35.28;18.95;;;;;;;5.75;69.60;102199.22;1783388;80;25777;-63
2021/10/20 05:37:57;;;;;;;39.40;20.52;;;;;;;5.78;69.63;102199.57;1777659;80;25822;-64
2021/10/20 05:40:25;;;;;;;33.90;18.45;;;;;;;5.78;69.81;102204.43;1782178;80;26634;-64
2021/10/20 05:42:53;;;;;;;34.48;17.65;;;;;;;5.82;69.96;102202.48;1782988;80;25826;-64
2021/10/20 05:45:20;;;;;;;33.23;18.15;;;;;;;5.83;69.98;102200.22;1782868;79;27469;-63
2021/10/20 05:47:47;;;;;;;29.85;17.55;;;;;;;5.87;69.97;102201.80;1782691;79;25806;-63
2021/10/20 05:50:15;;;;;;;31.50;16.55;;;;;;;5.96;70.26;102201.85;1784006;80;25760;-64
2021/10/20 05:52:50;;;;;;;27.15;15.55;;;;;;;6.10;70.51;102207.92;1783552;79;26345;-65
2021/10/20 05:55:28;;;;;;;34.45;15.95;;;;;;;6.33;71.06;102203.28;1774084;80;26515;-67
2021/10/20 05:57:54;;;;;;;38.48;16.45;;;;;;;6.48;71.37;102206.58;1782492;79;27891;-64
2021/10/20 06:00:21;;;;;;;35.63;15.80;;;;;;;6.60;71.25;102209.13;1783263;79;25846;-63
2021/10/20 06:02:50;;;;;;;28.85;16.25;;;;;;;6.67;70.95;102203.02;1784885;79;25734;-64
2021/10/20 06:05:17;;;;;;;33.55;17.60;;;;;;;6.74;71.43;102207.95;1774815;79;26743;-64
2021/10/20 06:07:45;;;;;;;34.15;16.80;;;;;;;6.86;71.52;102206.96;1794672;79;27347;-63
2021/10/20 06:10:14;;;;;;;34.00;17.62;;;;;;;6.98;71.52;102214.84;1788179;80;27513;-63
2021/10/20 06:12:42;;;;;;;76.50;18.27;;;;;;;7.10;71.53;102217.36;1789918;78;25715;-63
2021/10/20 06:15:10;;;;;;;43.25;15.80;;;;;;;7.21;71.52;102220.36;1768221;80;25805;-63
2021/10/20 06:17:38;;;;;;;27.10;15.25;;;;;;;7.31;71.67;102216.27;1758656;80;25809;-63
2021/10/20 06:20:09;;;;;;;32.98;16.05;;;;;;;7.42;71.74;102210.84;1783266;79;25904;-63
2021/10/20 06:22:40;;;;;;;36.85;19.90;;;;;;;7.55;71.89;102209.72;1772426;80;27519;-63
2021/10/20 06:25:07;;;;;;;30.77;18.73;;;;;;;7.66;71.67;102205.52;1787434;78;25891;-63
2021/10/20 06:27:34;;;;;;;42.48;18.42;;;;;;;7.78;71.54;102206.67;1770874;79;25868;-63
2021/10/20 06:30:01;;;;;;;34.35;17.82;;;;;;;7.89;71.33;102198.53;1774063;79;25806;-64
2021/10/20 06:32:31;;;;;;;48.13;16.77;;;;;;;7.98;71.08;102198.88;1782057;79;25821;-63
2021/10/20 06:34:58;;;;;;;39.08;20.45;;;;;;;8.10;71.13;102200.04;1788816;79;27503;-63
2021/10/20 06:37:27;;;;;;;34.30;17.17;;;;;;;8.22;70.88;102194.47;1786971;78;25896;-63
2021/10/20 06:39:54;;;;;;;31.95;17.55;;;;;;;8.11;70.51;102163.36;1766912;79;25858;-63
2021/10/20 06:42:21;;;;;;;45.03;18.32;;;;;;;8.31;70.34;102186.36;1785375;79;25828;-63
2021/10/20 06:44:48;;;;;;;32.50;18.25;;;;;;;8.37;70.32;102180.67;1789945;79;25750;-63
2021/10/20 06:47:16;;;;;;;46.65;20.25;;;;;;;8.43;70.12;102180.31;1789577;79;27385;-63
2021/10/20 06:49:46;;;;;;;37.75;21.10;;;;;;;8.48;69.90;102175.18;1786106;79;26461;-64
2021/10/20 06:52:12;;;;;;;37.00;21.00;;;;;;;8.52;69.87;102180.28;1794409;78;25677;-65
2021/10/20 06:54:39;;;;;;;42.25;20.08;;;;;;;8.57;69.97;102174.66;1784780;78;25757;-63
2021/10/20 06:57:06;;;;;;;40.55;21.87;;;;;;;8.62;69.99;102172.59;1793006;78;26527;-65
2021/10/20 06:59:33;;;;;;;50.75;22.37;;;;;;;8.67;69.87;102165.13;1793928;79;28260;-64
2021/10/20 07:02:00;;;;;;;44.98;24.10;;;;;;;8.74;69.71;102162.95;1792555;79;25727;-63
2021/10/20 07:04:27;;;;;;;50.45;25.60;;;;;;;8.80;69.54;102163.08;1788922;79;25831;-62
2021/10/20 07:06:55;;;;;;;53.80;23.80;;;;;;;8.84;69.39;102162.80;1793427;79;26482;-64
2021/10/20 07:09:22;;;;;;;54.03;22.20;;;;;;;8.92;69.29;102166.36;1784238;79;25766;-63
2021/10/20 07:11:50;;;;;;;45.85;22.27;;;;;;;9.00;69.58;102160.55;1787799;79;27494;-63
2021/10/20 07:14:16;;;;;;;49.63;21.70;;;;;;;9.11;69.45;102157.20;1782633;80;25885;-63
2021/10/20 07:16:44;;;;;;;42.60;22.00;;;;;;;9.21;69.23;102158.38;1782532;79;25960;-63
2021/10/20 07:19:11;;;;;;;47.15;22.67;;;;;;;9.33;69.05;102164.81;1787207;79;26353;-63
2021/10/20 07:21:38;;;;;;;42.30;23.87;;;;;;;9.45;69.03;102159.20;1781678;80;25868;-64
2021/10/20 07:24:05;;;;;;;53.63;26.37;;;;;;;9.58;69.04;102147.21;1778140;80;27426;-63
2021/10/20 07:26:32;;;;;;;46.37;23.27;;;;;;;9.71;69.17;102149.49;1778541;80;25842;-63
2021/10/20 07:29:00;;;;;;;57.35;25.12;;;;;;;9.85;68.72;102144.12;1751638;80;26512;-64
2021/10/20 07:31:30;;;;;;;48.68;25.50;;;;;;;9.99;68.61;102145.05;1780774;79;25807;-64
2021/10/20 07:33:59;;;;;;;58.83;26.42;;;;;;;10.15;68.54;102145.78;1775939;79;25813;-62
2021/10/20 07:36:28;;;;;;;44.13;21.70;;;;;;;10.33;68.04;102146.42;1772726;80;27553;-63
2021/10/20 07:38:56;;;;;;;41.30;21.05;;;;;;;10.51;67.78;102147.55;1775528;80;25741;-63
2021/10/20 07:41:23;;;;;;;43.23;20.85;;;;;;;10.69;67.64;102148.13;1782923;79;25757;-65
2021/10/20 07:43:50;;;;;;;39.13;22.45;;;;;;;10.86;67.17;102149.70;1773474;80;25743;-63
2021/10/20 07:46:17;;;;;;;51.53;23.90;;;;;;;11.02;66.77;102148.64;1776824;79;25762;-63
2021/10/20 07:48:44;;;;;;;46.65;20.62;;;;;;;11.17;66.37;102151.61;1779556;80;27875;-63
2021/10/20 07:51:15;;;;;;;35.70;20.70;;;;;;;11.34;66.09;102142.86;1781737;79;25766;-63
2021/10/20 07:53:42;;;;;;;39.73;20.15;;;;;;;11.50;64.78;102132.73;1761722;80;25940;-63
2021/10/20 07:56:09;;;;;;;44.80;20.17;;;;;;;11.65;64.21;102134.81;1780811;79;25819;-63
2021/10/20 07:58:36;;;;;;;35.15;18.50;;;;;;;11.80;63.64;102136.02;1785659;79;26364;-63
2021/10/20 08:01:03;;;;;;;40.80;19.98;;;;;;;12.00;63.82;102137.30;1786625;79;28140;-63
2021/10/20 08:03:30;;;;;;;40.58;20.00;;;;;;;12.20;63.55;102128.61;1776259;79;25801;-63
2021/10/20 08:05:57;;;;;;;39.13;20.55;;;;;;;12.42;63.09;102125.64;1777087;80;25810;-64
2021/10/20 08:08:27;;;;;;;36.63;20.23;;;;;;;12.62;62.52;102128.21;1779713;79;26555;-63
2021/10/20 08:10:53;;;;;;;49.98;19.98;;;;;;;12.82;62.40;102129.85;1774590;79;25754;-64
2021/10/20 08:13:20;;;;;;;41.53;18.10;;;;;;;13.03;62.08;102118.38;1753860;79;28689;-64
2021/10/20 08:15:48;;;;;;;40.92;17.17;;;;;;;13.24;60.06;102118.54;1772778;79;26352;-64
2021/10/20 08:18:16;;;;;;;45.03;18.12;;;;;;;13.42;59.28;102113.06;1776375;79;26455;-64
2021/10/20 08:20:42;;;;;;;40.83;15.83;;;;;;;13.68;59.64;102107.41;1775818;79;25818;-63
2021/10/20 08:23:09;;;;;;;40.52;15.53;;;;;;;13.93;57.26;102110.84;1785069;79;25881;-63
2021/10/20 08:25:42;;;;;;;32.20;15.95;;;;;;;14.12;57.80;102107.47;1794939;79;28609;-63
2021/10/20 08:28:09;;;;;;;35.55;16.93;;;;;;;14.34;56.03;102105.20;1799003;78;25826;-65
2021/10/20 08:30:36;;;;;;;32.38;13.80;;;;;;;14.54;55.71;102092.67;1797597;78;25841;-64
2021/10/20 08:33:09;;;;;;;24.82;13.90;;;;;;;14.79;55.38;102091.12;1767641;80;26929;-64
2021/10/20 08:35:41;;;;;;;27.82;12.88;;;;;;;15.03;55.73;102088.14;1771517;79;25870;-64
2021/10/20 08:38:05;;;;;;;30.20;12.43;;;;;;;15.32;55.53;102094.23;1775958;80;27488;-64
2021/10/20 08:40:36;;;;;;;23.12;10.35;;;;;;;15.57;51.67;102087.98;1767010;79;25781;-63
2021/10/20 08:43:04;;;;;;;35.73;12.03;;;;;;;15.78;50.81;102081.97;1767429;79;26604;-64
2021/10/20 08:45:32;;;;;;;35.98;10.60;;;;;;;16.08;51.15;102072.59;1757426;79;26346;-64
2021/10/20 08:47:59;;;;;;;12.43;5.55;;;;;;;16.36;49.62;102068.17;1775955;79;25728;-63
2021/10/20 08:50:31;;;;;;;10.98;6.17;;;;;;;16.64;44.74;102075.09;1775139;80;27495;-64
2021/10/20 08:52:58;;;;;;;9.95;5.37;;;;;;;16.87;43.94;102074.28;1776265;80;25751;-64
2021/10/20 08:55:26;;;;;;;8.38;5.72;;;;;;;17.31;42.44;102072.38;1774739;79;26580;-63
2021/10/20 08:57:55;;;;;;;7.00;4.55;;;;;;;18.12;42.06;102065.39;1775142;80;26135;-63
2021/10/20 09:00:24;;;;;;;8.85;5.28;;;;;;;19.08;41.21;102067.91;1775759;80;26456;-64
2021/10/20 09:02:51;;;;;;;10.43;5.17;;;;;;;19.96;37.69;102067.28;1774470;80;28187;-64
2021/10/20 09:05:25;;;;;;;8.85;4.85;;;;;;;20.66;34.53;102058.83;1769345;79;25808;-64
2021/10/20 09:07:55;;;;;;;8.33;5.58;;;;;;;20.80;35.32;102053.52;1771495;80;25869;-64
2021/10/20 09:10:24;;;;;;;12.93;5.70;;;;;;;21.38;35.83;102049.81;1773201;80;25773;-64
2021/10/20 09:12:54;;;;;;;17.20;5.10;;;;;;;22.07;36.49;102044.15;1775872;80;26317;-64
2021/10/20 09:15:26;;;;;;;7.47;5.12;;;;;;;22.77;33.86;102044.47;1778295;80;27407;-64
2021/10/20 09:17:58;;;;;;;8.60;4.62;;;;;;;23.31;33.08;102052.16;1776054;78;25809;-65
2021/10/20 09:20:44;;;;;;;9.40;5.45;;;;;;;23.78;32.13;102032.67;1772975;80;25771;-64
2021/10/20 09:23:18;;;;;;;9.95;4.70;;;;;;;24.10;29.75;102035.98;1750668;80;26424;-63
2021/10/20 09:25:58;;;;;;;7.85;3.80;;;;;;;24.27;29.87;102029.18;1775267;80;25866;-65
2021/10/20 09:28:32;;;;;;;7.15;4.05;;;;;;;24.73;31.14;102018.80;1776256;80;26869;-66
2021/10/20 09:31:07;;;;;;;6.30;4.33;;;;;;;25.32;28.48;102017.46;1773168;80;25810;-65
2021/10/20 09:33:42;;;;;;;7.55;4.53;;;;;;;25.68;29.07;102012.77;1769411;79;25890;-65
2021/10/20 09:36:14;;;;;;;7.37;5.03;;;;;;;26.09;29.31;101999.41;1774148;80;26247;-65
2021/10/20 09:38:49;;;;;;;8.35;4.30;;;;;;;26.61;28.37;101997.39;1774917;79;25720;-64
2021/10/20 09:41:14;;;;;;;7.97;3.90;;;;;;;27.02;26.68;101989.39;1782249;79;27468;-65
2021/10/20 09:43:53;;;;;;;13.28;4.00;;;;;;;27.37;25.18;101987.67;1764494;80;25734;-65
2021/10/20 09:46:42;;;;;;;9.10;4.05;;;;;;;27.60;25.29;101984.91;1773059;80;25807;-65
2021/10/20 09:49:22;;;;;;;9.78;4.67;;;;;;;27.92;25.58;101979.42;1771018;80;25736;-65
2021/10/20 09:51:58;;;;;;;6.62;3.80;;;;;;;28.24;23.18;101976.09;1772727;80;26551;-65
2021/10/20 09:54:35;;;;;;;9.13;3.47;;;;;;;28.38;24.25;101971.28;1775839;80;27442;-66
2021/10/20 09:57:16;;;;;;;6.53;3.42;;;;;;;28.74;23.09;101973.00;1776649;80;26468;-70
2021/10/20 09:59:47;;;;;;;10.80;3.80;;;;;;;28.88;23.86;101966.78;1773794;79;25794;-64
2021/10/20 10:02:13;;;;;;;7.75;3.30;;;;;;;29.08;22.05;101961.00;1776070;80;26529;-67
2021/10/20 10:04:41;;;;;;;9.23;3.40;;;;;;;29.35;23.67;101958.78;1775427;80;25707;-67
2021/10/20 10:07:08;;;;;;;8.98;3.10;;;;;;;29.80;21.65;101961.64;1779174;80;27446;-64
2021/10/20 10:09:35;;;;;;;9.65;3.45;;;;;;;29.77;21.45;101950.19;1778956;80;25758;-64
2021/10/20 10:12:18;;;;;;;7.47;3.80;;;;;;;29.97;21.98;101943.81;1773273;80;25844;-64
2021/10/20 10:14:49;;;;;;;5.87;3.27;;;;;;;29.77;20.22;101932.16;1776174;79;26325;-63
2021/10/20 10:17:19;;;;;;;4.65;2.70;;;;;;;29.86;21.97;101919.64;1774509;80;25736;-66
2021/10/20 10:19:46;;;;;;;6.17;3.10;;;;;;;30.21;20.17;101924.97;1780020;79;28026;-66
2021/10/20 10:22:24;;;;;;;8.23;3.15;;;;;;;29.64;20.09;101921.56;1777747;80;25991;-66
2021/10/20 10:24:51;;;;;;;7.83;3.67;;;;;;;29.70;20.77;101920.33;1771802;80;25814;-65
2021/10/20 10:27:20;;;;;;;5.30;2.83;;;;;;;30.02;20.32;101920.91;1771692;80;53704;-65
2021/10/20 10:29:56;;;;;;;7.58;2.17;;;;;;;30.25;19.85;101915.91;1759184;80;25763;-66
2021/10/20 10:32:27;;;;;;;6.35;3.12;;;;;;;30.48;19.48;101909.20;1773122;80;27438;-66
2021/10/20 10:34:57;;;;;;;10.58;3.77;;;;;;;30.67;19.50;101902.98;1776559;80;25768;-66
2021/10/20 10:37:34;;;;;;;9.05;3.80;;;;;;;30.76;19.50;101911.23;1774168;80;25935;-66
2021/10/20 10:40:19;;;;;;;8.18;3.47;;;;;;;30.68;20.15;101899.95;1739432;81;25803;-66
2021/10/20 10:42:49;;;;;;;9.68;3.30;;;;;;;31.09;19.95;101895.79;1711472;82;25771;-67
2021/10/20 10:45:23;;;;;;;4.10;2.83;;;;;;;31.31;19.86;101895.14;1740980;82;28104;-67
2021/10/20 10:48:03;;;;;;;9.65;3.10;;;;;;;31.50;19.92;101887.41;1741928;80;25780;-66
2021/10/20 10:50:49;;;;;;;8.93;3.02;;;;;;;31.90;18.71;101882.83;1771384;80;25826;-65
2021/10/20 10:53:40;;;;;;;6.55;3.05;;;;;;;32.21;17.04;101881.36;1765754;80;25734;-65
2021/10/20 10:56:14;;;;;;;8.38;3.10;;;;;;;32.19;17.10;101871.02;1779722;80;25826;-67
2021/10/20 10:59:03;;;;;;;10.28;3.50;;;;;;;32.25;17.24;101868.66;1779176;79;27500;-66
2021/10/20 11:01:48;;;;;;;6.15;3.20;;;;;;;32.29;17.90;101860.64;1774416;80;26004;-66
2021/10/20 11:04:28;;;;;;;7.67;2.75;;;;;;;31.98;17.14;101862.92;1762471;80;25817;-66
2021/10/20 11:06:56;;;;;;;4.17;2.65;;;;;;;31.78;17.38;101845.36;1760254;81;25845;-66
2021/10/20 11:09:32;;;;;;;8.05;3.02;;;;;;;32.01;17.50;101844.33;1764660;80;26386;-65
2021/10/20 11:12:03;;;;;;;8.13;2.80;;;;;;;32.07;17.64;101840.52;1779056;80;27539;-65
2021/10/20 11:14:32;;;;;;;6.42;3.08;;;;;;;32.07;17.42;101839.69;1779300;80;25781;-66
2021/10/20 11:17:09;;;;;;;5.65;3.20;;;;;;;31.96;17.30;101830.36;1779676;80;25728;-65
2021/10/20 11:19:36;;;;;;;6.83;3.10;;;;;;;31.25;18.09;101828.88;1779263;80;26752;-65
2021/10/20 11:22:04;;;;;;;5.33;3.12;;;;;;;31.33;18.16;101835.41;1777228;80;26256;-65
2021/10/20 11:24:38;;;;;;;6.95;3.47;;;;;;;30.70;17.85;101819.19;1778936;80;27484;-67
2021/10/20 11:27:05;;;;;;;6.72;3.33;;;;;;;30.52;18.26;101818.28;1777007;80;25830;-66